sensor_id;sensor_type;location;lat;lon;timestamp;P1;durP1;ratioP1;P2;durP2;ratioP2
2041;SDS011;1026;51.460;7.252;2023-04-24T00:00:41;0.70;;;0.67;;
2041;SDS011;1026;51.460;7.252;2023-04-24T00:03:07;1.00;;;0.90;;
2041;SDS011;1026;51.460;7.252;2023-04-24T00:05:32;0.80;;;0.80;;
2041;SDS011;1026;51.460;7.252;2023-04-24T00:07:58;0.80;;;0.80;;
2041;SDS011;1026;51.460;7.252;2023-04-24T00:10:24;1.57;;;0.60;;
2041;SDS011;1026;51.460;7.252;2023-04-24T00:12:50;5.73;;;1.00;;
2041;SDS011;1026;51.460;7.252;2023-04-24T00:15:16;0.70;;;0.60;;
2041;SDS011;1026;51.460;7.252;2023-04-24T00:17:42;1.00;;;0.80;;
2041;SDS011;1026;51.460;7.252;2023-04-24T00:20:07;1.20;;;1.10;;
2041;SDS011;1026;51.460;7.252;2023-04-24T00:22:35;0.60;;;0.60;;
2041;SDS011;1026;51.460;7.252;2023-04-24T00:25:00;0.70;;;0.70;;
2041;SDS011;1026;51.460;7.252;2023-04-24T00:27:26;0.83;;;0.83;;
2041;SDS011;1026;51.460;7.252;2023-04-24T00:29:52;1.07;;;0.93;;
2041;SDS011;1026;51.460;7.252;2023-04-24T00:32:17;1.37;;;0.80;;
2041;SDS011;1026;51.460;7.252;2023-04-24T00:34:43;0.80;;;0.80;;
2041;SDS011;1026;51.460;7.252;2023-04-24T00:37:09;0.83;;;0.80;;
2041;SDS011;1026;51.460;7.252;2023-04-24T00:39:36;0.97;;;0.90;;
2041;SDS011;1026;51.460;7.252;2023-04-24T00:42:02;0.80;;;0.80;;
2041;SDS011;1026;51.460;7.252;2023-04-24T00:44:31;0.90;;;0.90;;
2041;SDS011;1026;51.460;7.252;2023-04-24T00:46:57;0.70;;;0.70;;
2041;SDS011;1026;51.460;7.252;2023-04-24T00:49:25;1.03;;;0.93;;
2041;SDS011;1026;51.460;7.252;2023-04-24T00:51:50;2.73;;;1.13;;
2041;SDS011;1026;51.460;7.252;2023-04-24T00:54:17;0.80;;;0.80;;
2041;SDS011;1026;51.460;7.252;2023-04-24T00:57:03;0.60;;;0.60;;
2041;SDS011;1026;51.460;7.252;2023-04-24T00:59:29;0.67;;;0.67;;
2041;SDS011;1026;51.460;7.252;2023-04-24T01:01:55;1.23;;;1.13;;
2041;SDS011;1026;51.460;7.252;2023-04-24T01:04:22;0.80;;;0.80;;
2041;SDS011;1026;51.460;7.252;2023-04-24T01:06:48;1.10;;;1.00;;
2041;SDS011;1026;51.460;7.252;2023-04-24T01:09:15;3.73;;;1.33;;
2041;SDS011;1026;51.460;7.252;2023-04-24T01:11:41;1.10;;;1.00;;
2041;SDS011;1026;51.460;7.252;2023-04-24T01:14:08;2.20;;;1.10;;
2041;SDS011;1026;51.460;7.252;2023-04-24T01:16:33;0.97;;;0.80;;
2041;SDS011;1026;51.460;7.252;2023-04-24T01:19:00;3.10;;;0.90;;
2041;SDS011;1026;51.460;7.252;2023-04-24T01:21:28;1.80;;;1.70;;
2041;SDS011;1026;51.460;7.252;2023-04-24T01:23:57;3.03;;;1.17;;
2041;SDS011;1026;51.460;7.252;2023-04-24T01:26:23;1.47;;;1.37;;
2041;SDS011;1026;51.460;7.252;2023-04-24T01:28:50;2.03;;;1.30;;
2041;SDS011;1026;51.460;7.252;2023-04-24T01:31:17;1.20;;;1.10;;
2041;SDS011;1026;51.460;7.252;2023-04-24T01:33:43;3.60;;;1.50;;
2041;SDS011;1026;51.460;7.252;2023-04-24T01:36:09;1.40;;;1.00;;
2041;SDS011;1026;51.460;7.252;2023-04-24T01:38:36;1.30;;;1.20;;
2041;SDS011;1026;51.460;7.252;2023-04-24T01:41:02;1.10;;;0.90;;
2041;SDS011;1026;51.460;7.252;2023-04-24T01:43:28;1.50;;;1.10;;
2041;SDS011;1026;51.460;7.252;2023-04-24T01:45:54;1.53;;;1.43;;
2041;SDS011;1026;51.460;7.252;2023-04-24T01:48:19;1.90;;;1.30;;
2041;SDS011;1026;51.460;7.252;2023-04-24T01:50:45;1.13;;;1.03;;
2041;SDS011;1026;51.460;7.252;2023-04-24T01:53:11;1.00;;;1.00;;
2041;SDS011;1026;51.460;7.252;2023-04-24T01:55:37;2.60;;;1.63;;
2041;SDS011;1026;51.460;7.252;2023-04-24T01:58:03;1.30;;;1.20;;
2041;SDS011;1026;51.460;7.252;2023-04-24T02:00:29;2.60;;;1.43;;
2041;SDS011;1026;51.460;7.252;2023-04-24T02:02:54;1.77;;;1.50;;
2041;SDS011;1026;51.460;7.252;2023-04-24T02:05:20;1.60;;;1.50;;
2041;SDS011;1026;51.460;7.252;2023-04-24T02:07:46;1.53;;;1.20;;
2041;SDS011;1026;51.460;7.252;2023-04-24T02:10:11;1.53;;;1.43;;
2041;SDS011;1026;51.460;7.252;2023-04-24T02:12:37;1.37;;;1.27;;
2041;SDS011;1026;51.460;7.252;2023-04-24T02:15:03;4.33;;;1.80;;
2041;SDS011;1026;51.460;7.252;2023-04-24T02:17:30;1.10;;;1.00;;
2041;SDS011;1026;51.460;7.252;2023-04-24T02:19:56;3.13;;;2.83;;
2041;SDS011;1026;51.460;7.252;2023-04-24T02:22:22;2.60;;;2.40;;
2041;SDS011;1026;51.460;7.252;2023-04-24T02:24:47;3.10;;;2.90;;
2041;SDS011;1026;51.460;7.252;2023-04-24T02:27:13;3.30;;;2.80;;
2041;SDS011;1026;51.460;7.252;2023-04-24T02:29:39;6.83;;;3.73;;
2041;SDS011;1026;51.460;7.252;2023-04-24T02:32:05;2.57;;;2.13;;
2041;SDS011;1026;51.460;7.252;2023-04-24T02:34:31;1.80;;;1.70;;
2041;SDS011;1026;51.460;7.252;2023-04-24T02:36:56;5.80;;;3.20;;
2041;SDS011;1026;51.460;7.252;2023-04-24T02:39:22;2.77;;;2.57;;
2041;SDS011;1026;51.460;7.252;2023-04-24T02:41:48;4.20;;;2.70;;
2041;SDS011;1026;51.460;7.252;2023-04-24T02:44:18;1.97;;;1.77;;
2041;SDS011;1026;51.460;7.252;2023-04-24T02:46:50;4.20;;;2.70;;
2041;SDS011;1026;51.460;7.252;2023-04-24T02:49:16;2.43;;;2.00;;
2041;SDS011;1026;51.460;7.252;2023-04-24T02:51:41;3.87;;;2.57;;
2041;SDS011;1026;51.460;7.252;2023-04-24T02:54:08;2.60;;;2.40;;
2041;SDS011;1026;51.460;7.252;2023-04-24T02:56:35;2.97;;;2.73;;
2041;SDS011;1026;51.460;7.252;2023-04-24T02:59:00;6.40;;;3.40;;
2041;SDS011;1026;51.460;7.252;2023-04-24T03:01:26;3.72;;;3.35;;
2041;SDS011;1026;51.460;7.252;2023-04-24T03:03:52;3.23;;;2.93;;
2041;SDS011;1026;51.460;7.252;2023-04-24T03:06:17;2.57;;;2.37;;
2041;SDS011;1026;51.460;7.252;2023-04-24T03:08:43;4.77;;;4.37;;
2041;SDS011;1026;51.460;7.252;2023-04-24T03:11:09;4.03;;;3.47;;
2041;SDS011;1026;51.460;7.252;2023-04-24T03:13:34;4.00;;;3.00;;
2041;SDS011;1026;51.460;7.252;2023-04-24T03:16:00;5.53;;;4.70;;
2041;SDS011;1026;51.460;7.252;2023-04-24T03:18:26;4.47;;;4.07;;
2041;SDS011;1026;51.460;7.252;2023-04-24T03:20:51;2.90;;;2.43;;
2041;SDS011;1026;51.460;7.252;2023-04-24T03:23:17;5.10;;;4.17;;
2041;SDS011;1026;51.460;7.252;2023-04-24T03:25:43;2.87;;;2.60;;
2041;SDS011;1026;51.460;7.252;2023-04-24T03:28:09;4.83;;;4.33;;
2041;SDS011;1026;51.460;7.252;2023-04-24T03:30:34;3.63;;;3.20;;
2041;SDS011;1026;51.460;7.252;2023-04-24T03:33:00;4.23;;;3.70;;
2041;SDS011;1026;51.460;7.252;2023-04-24T03:35:26;2.70;;;2.43;;
2041;SDS011;1026;51.460;7.252;2023-04-24T03:37:51;5.43;;;4.17;;
2041;SDS011;1026;51.460;7.252;2023-04-24T03:40:17;6.00;;;5.00;;
2041;SDS011;1026;51.460;7.252;2023-04-24T03:42:42;4.03;;;3.63;;
2041;SDS011;1026;51.460;7.252;2023-04-24T03:45:08;4.97;;;4.57;;
2041;SDS011;1026;51.460;7.252;2023-04-24T03:47:34;4.33;;;3.83;;
2041;SDS011;1026;51.460;7.252;2023-04-24T03:50:01;4.43;;;3.70;;
2041;SDS011;1026;51.460;7.252;2023-04-24T03:52:27;3.40;;;3.10;;
2041;SDS011;1026;51.460;7.252;2023-04-24T03:54:52;6.40;;;5.17;;
2041;SDS011;1026;51.460;7.252;2023-04-24T03:57:18;3.80;;;3.43;;
2041;SDS011;1026;51.460;7.252;2023-04-24T03:59:44;3.80;;;3.17;;
2041;SDS011;1026;51.460;7.252;2023-04-24T04:02:09;6.73;;;4.80;;
2041;SDS011;1026;51.460;7.252;2023-04-24T04:04:35;5.50;;;4.93;;
2041;SDS011;1026;51.460;7.252;2023-04-24T04:07:01;7.27;;;6.57;;
2041;SDS011;1026;51.460;7.252;2023-04-24T04:09:27;7.47;;;5.80;;
2041;SDS011;1026;51.460;7.252;2023-04-24T04:11:53;6.43;;;5.43;;
2041;SDS011;1026;51.460;7.252;2023-04-24T04:14:20;6.60;;;3.87;;
2041;SDS011;1026;51.460;7.252;2023-04-24T04:16:46;5.13;;;3.70;;
2041;SDS011;1026;51.460;7.252;2023-04-24T04:19:12;6.93;;;4.97;;
2041;SDS011;1026;51.460;7.252;2023-04-24T04:21:37;7.70;;;5.17;;
2041;SDS011;1026;51.460;7.252;2023-04-24T04:24:03;4.30;;;3.57;;
2041;SDS011;1026;51.460;7.252;2023-04-24T04:26:30;5.90;;;5.30;;
2041;SDS011;1026;51.460;7.252;2023-04-24T04:28:57;5.80;;;4.80;;
2041;SDS011;1026;51.460;7.252;2023-04-24T04:31:23;7.57;;;5.67;;
2041;SDS011;1026;51.460;7.252;2023-04-24T04:33:55;5.03;;;4.30;;
2041;SDS011;1026;51.460;7.252;2023-04-24T04:36:21;5.30;;;4.43;;
2041;SDS011;1026;51.460;7.252;2023-04-24T04:38:49;4.70;;;3.17;;
2041;SDS011;1026;51.460;7.252;2023-04-24T04:41:14;8.63;;;7.30;;
2041;SDS011;1026;51.460;7.252;2023-04-24T04:43:41;5.27;;;4.80;;
2041;SDS011;1026;51.460;7.252;2023-04-24T04:46:07;7.67;;;6.10;;
2041;SDS011;1026;51.460;7.252;2023-04-24T04:48:35;7.40;;;5.87;;
2041;SDS011;1026;51.460;7.252;2023-04-24T04:51:01;6.87;;;4.50;;
2041;SDS011;1026;51.460;7.252;2023-04-24T04:53:27;4.77;;;4.37;;
2041;SDS011;1026;51.460;7.252;2023-04-24T04:55:52;7.07;;;5.83;;
2041;SDS011;1026;51.460;7.252;2023-04-24T04:58:18;7.50;;;5.67;;
2041;SDS011;1026;51.460;7.252;2023-04-24T05:01:02;9.73;;;7.10;;
2041;SDS011;1026;51.460;7.252;2023-04-24T05:03:32;7.63;;;6.10;;
2041;SDS011;1026;51.460;7.252;2023-04-24T05:05:58;4.80;;;4.30;;
2041;SDS011;1026;51.460;7.252;2023-04-24T05:08:24;4.83;;;4.40;;
2041;SDS011;1026;51.460;7.252;2023-04-24T05:10:49;4.43;;;3.43;;
2041;SDS011;1026;51.460;7.252;2023-04-24T05:13:15;4.60;;;4.10;;
2041;SDS011;1026;51.460;7.252;2023-04-24T05:15:41;7.57;;;6.53;;
2041;SDS011;1026;51.460;7.252;2023-04-24T05:18:06;5.60;;;4.97;;
2041;SDS011;1026;51.460;7.252;2023-04-24T05:20:32;7.00;;;5.50;;
2041;SDS011;1026;51.460;7.252;2023-04-24T05:22:58;5.60;;;3.93;;
2041;SDS011;1026;51.460;7.252;2023-04-24T05:25:23;5.97;;;5.37;;
2041;SDS011;1026;51.460;7.252;2023-04-24T05:27:49;5.60;;;5.00;;
2041;SDS011;1026;51.460;7.252;2023-04-24T05:30:14;7.50;;;4.90;;
2041;SDS011;1026;51.460;7.252;2023-04-24T05:32:40;8.37;;;5.47;;
2041;SDS011;1026;51.460;7.252;2023-04-24T05:35:06;4.67;;;4.27;;
2041;SDS011;1026;51.460;7.252;2023-04-24T05:37:32;5.47;;;4.50;;
2041;SDS011;1026;51.460;7.252;2023-04-24T05:39:58;7.83;;;4.87;;
2041;SDS011;1026;51.460;7.252;2023-04-24T05:42:23;7.10;;;5.63;;
2041;SDS011;1026;51.460;7.252;2023-04-24T05:44:49;7.00;;;5.50;;
2041;SDS011;1026;51.460;7.252;2023-04-24T05:47:15;5.50;;;5.00;;
2041;SDS011;1026;51.460;7.252;2023-04-24T05:49:41;6.23;;;5.03;;
2041;SDS011;1026;51.460;7.252;2023-04-24T05:52:07;4.63;;;3.47;;
2041;SDS011;1026;51.460;7.252;2023-04-24T05:54:33;8.17;;;5.73;;
2041;SDS011;1026;51.460;7.252;2023-04-24T05:57:00;7.40;;;6.03;;
2041;SDS011;1026;51.460;7.252;2023-04-24T05:59:29;5.03;;;4.20;;
2041;SDS011;1026;51.460;7.252;2023-04-24T06:01:55;11.20;;;5.77;;
2041;SDS011;1026;51.460;7.252;2023-04-24T06:04:21;5.13;;;4.63;;
2041;SDS011;1026;51.460;7.252;2023-04-24T06:06:47;4.03;;;2.90;;
2041;SDS011;1026;51.460;7.252;2023-04-24T06:09:21;5.60;;;4.90;;
2041;SDS011;1026;51.460;7.252;2023-04-24T06:11:49;5.60;;;4.60;;
2041;SDS011;1026;51.460;7.252;2023-04-24T06:14:17;4.90;;;4.40;;
2041;SDS011;1026;51.460;7.252;2023-04-24T06:16:43;4.80;;;3.70;;
2041;SDS011;1026;51.460;7.252;2023-04-24T06:19:09;5.33;;;4.30;;
2041;SDS011;1026;51.460;7.252;2023-04-24T06:21:34;7.27;;;5.20;;
2041;SDS011;1026;51.460;7.252;2023-04-24T06:24:00;5.40;;;4.90;;
2041;SDS011;1026;51.460;7.252;2023-04-24T06:26:26;5.60;;;4.50;;
2041;SDS011;1026;51.460;7.252;2023-04-24T06:28:52;4.43;;;4.10;;
2041;SDS011;1026;51.460;7.252;2023-04-24T06:31:20;5.80;;;5.23;;
2041;SDS011;1026;51.460;7.252;2023-04-24T06:33:46;5.00;;;4.27;;
2041;SDS011;1026;51.460;7.252;2023-04-24T06:36:12;4.27;;;3.77;;
2041;SDS011;1026;51.460;7.252;2023-04-24T06:38:38;5.00;;;4.47;;
2041;SDS011;1026;51.460;7.252;2023-04-24T06:41:04;7.43;;;4.40;;
2041;SDS011;1026;51.460;7.252;2023-04-24T06:43:30;4.20;;;3.80;;
2041;SDS011;1026;51.460;7.252;2023-04-24T06:45:57;5.87;;;4.20;;
2041;SDS011;1026;51.460;7.252;2023-04-24T06:48:23;5.30;;;4.07;;
2041;SDS011;1026;51.460;7.252;2023-04-24T06:50:50;5.50;;;4.67;;
2041;SDS011;1026;51.460;7.252;2023-04-24T06:53:15;6.17;;;5.00;;
2041;SDS011;1026;51.460;7.252;2023-04-24T06:55:41;4.83;;;4.37;;
2041;SDS011;1026;51.460;7.252;2023-04-24T06:58:08;4.97;;;4.27;;
2041;SDS011;1026;51.460;7.252;2023-04-24T07:00:34;5.10;;;4.53;;
2041;SDS011;1026;51.460;7.252;2023-04-24T07:03:00;4.43;;;3.60;;
2041;SDS011;1026;51.460;7.252;2023-04-24T07:05:25;5.73;;;4.30;;
2041;SDS011;1026;51.460;7.252;2023-04-24T07:07:51;5.50;;;4.30;;
2041;SDS011;1026;51.460;7.252;2023-04-24T07:10:17;4.50;;;4.10;;
2041;SDS011;1026;51.460;7.252;2023-04-24T07:12:43;4.93;;;4.43;;
2041;SDS011;1026;51.460;7.252;2023-04-24T07:15:08;5.00;;;4.50;;
2041;SDS011;1026;51.460;7.252;2023-04-24T07:17:35;4.47;;;4.07;;
2041;SDS011;1026;51.460;7.252;2023-04-24T07:20:03;4.53;;;3.70;;
2041;SDS011;1026;51.460;7.252;2023-04-24T07:22:29;4.13;;;3.73;;
2041;SDS011;1026;51.460;7.252;2023-04-24T07:24:55;6.07;;;4.00;;
2041;SDS011;1026;51.460;7.252;2023-04-24T07:27:21;5.73;;;3.50;;
2041;SDS011;1026;51.460;7.252;2023-04-24T07:29:46;3.03;;;2.83;;
2041;SDS011;1026;51.460;7.252;2023-04-24T07:32:12;3.80;;;3.13;;
2041;SDS011;1026;51.460;7.252;2023-04-24T07:34:38;3.47;;;2.87;;
2041;SDS011;1026;51.460;7.252;2023-04-24T07:37:03;3.33;;;3.10;;
2041;SDS011;1026;51.460;7.252;2023-04-24T07:39:29;2.80;;;2.60;;
2041;SDS011;1026;51.460;7.252;2023-04-24T07:41:55;2.83;;;2.63;;
2041;SDS011;1026;51.460;7.252;2023-04-24T07:44:21;3.07;;;2.77;;
2041;SDS011;1026;51.460;7.252;2023-04-24T07:46:46;3.17;;;2.87;;
2041;SDS011;1026;51.460;7.252;2023-04-24T07:49:12;5.20;;;3.03;;
2041;SDS011;1026;51.460;7.252;2023-04-24T07:51:38;3.80;;;2.30;;
2041;SDS011;1026;51.460;7.252;2023-04-24T07:54:04;3.70;;;2.97;;
2041;SDS011;1026;51.460;7.252;2023-04-24T07:56:31;2.70;;;2.30;;
2041;SDS011;1026;51.460;7.252;2023-04-24T07:58:58;2.67;;;2.30;;
2041;SDS011;1026;51.460;7.252;2023-04-24T08:01:23;2.23;;;2.00;;
2041;SDS011;1026;51.460;7.252;2023-04-24T08:03:57;1.80;;;1.70;;
2041;SDS011;1026;51.460;7.252;2023-04-24T08:06:22;2.40;;;2.17;;
2041;SDS011;1026;51.460;7.252;2023-04-24T08:08:49;3.20;;;1.70;;
2041;SDS011;1026;51.460;7.252;2023-04-24T08:11:21;2.47;;;2.07;;
2041;SDS011;1026;51.460;7.252;2023-04-24T08:13:53;1.23;;;1.17;;
2041;SDS011;1026;51.460;7.252;2023-04-24T08:16:19;1.90;;;0.90;;
2041;SDS011;1026;51.460;7.252;2023-04-24T08:18:45;1.17;;;1.10;;
2041;SDS011;1026;51.460;7.252;2023-04-24T08:21:11;1.20;;;1.00;;
2041;SDS011;1026;51.460;7.252;2023-04-24T08:23:41;1.20;;;1.10;;
2041;SDS011;1026;51.460;7.252;2023-04-24T08:26:07;1.33;;;1.23;;
2041;SDS011;1026;51.460;7.252;2023-04-24T08:28:38;1.10;;;1.00;;
2041;SDS011;1026;51.460;7.252;2023-04-24T08:31:04;1.30;;;1.20;;
2041;SDS011;1026;51.460;7.252;2023-04-24T08:33:30;1.63;;;1.53;;
2041;SDS011;1026;51.460;7.252;2023-04-24T08:36:00;1.90;;;0.97;;
2041;SDS011;1026;51.460;7.252;2023-04-24T08:38:27;1.20;;;1.10;;
2041;SDS011;1026;51.460;7.252;2023-04-24T08:40:52;1.27;;;1.10;;
2041;SDS011;1026;51.460;7.252;2023-04-24T08:43:18;0.77;;;0.70;;
2041;SDS011;1026;51.460;7.252;2023-04-24T08:45:47;1.23;;;1.13;;
2041;SDS011;1026;51.460;7.252;2023-04-24T08:48:13;1.57;;;1.40;;
2041;SDS011;1026;51.460;7.252;2023-04-24T08:50:40;1.10;;;1.00;;
2041;SDS011;1026;51.460;7.252;2023-04-24T08:53:17;1.73;;;1.10;;
2041;SDS011;1026;51.460;7.252;2023-04-24T08:55:45;3.60;;;1.60;;
2041;SDS011;1026;51.460;7.252;2023-04-24T08:58:16;1.13;;;0.80;;
2041;SDS011;1026;51.460;7.252;2023-04-24T09:06:38;1.50;;;1.03;;
2041;SDS011;1026;51.460;7.252;2023-04-24T09:09:10;1.30;;;1.20;;
2041;SDS011;1026;51.460;7.252;2023-04-24T09:11:36;1.00;;;1.00;;
2041;SDS011;1026;51.460;7.252;2023-04-24T09:14:02;2.80;;;1.20;;
2041;SDS011;1026;51.460;7.252;2023-04-24T09:16:29;1.43;;;1.20;;
2041;SDS011;1026;51.460;7.252;2023-04-24T09:18:58;1.60;;;1.00;;
2041;SDS011;1026;51.460;7.252;2023-04-24T09:21:23;2.40;;;1.50;;
2041;SDS011;1026;51.460;7.252;2023-04-24T09:23:58;1.10;;;1.10;;
2041;SDS011;1026;51.460;7.252;2023-04-24T09:26:26;1.37;;;1.27;;
2041;SDS011;1026;51.460;7.252;2023-04-24T09:28:56;1.90;;;1.23;;
2041;SDS011;1026;51.460;7.252;2023-04-24T09:31:22;1.17;;;1.03;;
2041;SDS011;1026;51.460;7.252;2023-04-24T09:33:53;2.50;;;1.20;;
2041;SDS011;1026;51.460;7.252;2023-04-24T09:36:27;0.90;;;0.90;;
2041;SDS011;1026;51.460;7.252;2023-04-24T09:38:58;1.97;;;1.13;;
2041;SDS011;1026;51.460;7.252;2023-04-24T09:41:25;1.30;;;1.20;;
2041;SDS011;1026;51.460;7.252;2023-04-24T09:43:53;1.77;;;1.20;;
2041;SDS011;1026;51.460;7.252;2023-04-24T09:46:20;1.20;;;1.10;;
2041;SDS011;1026;51.460;7.252;2023-04-24T09:48:47;2.57;;;1.33;;
2041;SDS011;1026;51.460;7.252;2023-04-24T09:51:13;1.70;;;1.30;;
2041;SDS011;1026;51.460;7.252;2023-04-24T09:53:46;2.80;;;1.70;;
2041;SDS011;1026;51.460;7.252;2023-04-24T09:56:12;2.50;;;2.00;;
2041;SDS011;1026;51.460;7.252;2023-04-24T09:58:38;1.57;;;1.27;;
2041;SDS011;1026;51.460;7.252;2023-04-24T10:01:04;1.63;;;1.53;;
2041;SDS011;1026;51.460;7.252;2023-04-24T10:03:30;2.90;;;1.73;;
2041;SDS011;1026;51.460;7.252;2023-04-24T10:06:12;2.00;;;1.80;;
2041;SDS011;1026;51.460;7.252;2023-04-24T10:08:38;3.50;;;2.23;;
2041;SDS011;1026;51.460;7.252;2023-04-24T10:11:04;1.43;;;1.30;;
2041;SDS011;1026;51.460;7.252;2023-04-24T10:13:30;1.80;;;1.70;;
2041;SDS011;1026;51.460;7.252;2023-04-24T10:15:56;6.50;;;2.23;;
2041;SDS011;1026;51.460;7.252;2023-04-24T10:18:23;2.17;;;1.97;;
2041;SDS011;1026;51.460;7.252;2023-04-24T10:20:50;2.47;;;1.50;;
2041;SDS011;1026;51.460;7.252;2023-04-24T10:23:16;2.10;;;1.60;;
2041;SDS011;1026;51.460;7.252;2023-04-24T10:25:44;2.30;;;2.10;;
2041;SDS011;1026;51.460;7.252;2023-04-24T10:28:10;2.50;;;1.83;;
2041;SDS011;1026;51.460;7.252;2023-04-24T10:30:37;1.40;;;1.30;;
2041;SDS011;1026;51.460;7.252;2023-04-24T10:33:04;2.23;;;2.03;;
2041;SDS011;1026;51.460;7.252;2023-04-24T10:35:32;1.90;;;1.60;;
2041;SDS011;1026;51.460;7.252;2023-04-24T10:38:02;2.67;;;2.47;;
2041;SDS011;1026;51.460;7.252;2023-04-24T10:40:38;3.80;;;3.50;;
2041;SDS011;1026;51.460;7.252;2023-04-24T10:43:05;3.90;;;2.73;;
2041;SDS011;1026;51.460;7.252;2023-04-24T10:45:33;3.70;;;3.40;;
2041;SDS011;1026;51.460;7.252;2023-04-24T10:50:27;5.37;;;2.43;;
2041;SDS011;1026;51.460;7.252;2023-04-24T10:53:05;3.10;;;2.80;;
2041;SDS011;1026;51.460;7.252;2023-04-24T10:55:40;2.73;;;2.47;;
2041;SDS011;1026;51.460;7.252;2023-04-24T10:58:08;7.00;;;3.93;;
2041;SDS011;1026;51.460;7.252;2023-04-24T11:00:37;4.27;;;2.53;;
2041;SDS011;1026;51.460;7.252;2023-04-24T11:03:04;7.40;;;3.43;;
2041;SDS011;1026;51.460;7.252;2023-04-24T11:06:10;3.70;;;2.67;;
2041;SDS011;1026;51.460;7.252;2023-04-24T11:08:26;8.30;;;4.10;;
2041;SDS011;1026;51.460;7.252;2023-04-24T11:10:55;2.57;;;2.37;;
2041;SDS011;1026;51.460;7.252;2023-04-24T11:13:24;3.87;;;2.63;;
2041;SDS011;1026;51.460;7.252;2023-04-24T11:18:50;6.77;;;4.40;;
2041;SDS011;1026;51.460;7.252;2023-04-24T11:21:24;4.77;;;3.60;;
2041;SDS011;1026;51.460;7.252;2023-04-24T11:23:51;9.00;;;4.13;;
2041;SDS011;1026;51.460;7.252;2023-04-24T11:26:18;7.27;;;4.20;;
2041;SDS011;1026;51.460;7.252;2023-04-24T11:28:48;5.07;;;3.60;;
2041;SDS011;1026;51.460;7.252;2023-04-24T11:34:16;3.80;;;3.30;;
2041;SDS011;1026;51.460;7.252;2023-04-24T11:36:43;4.37;;;2.90;;
2041;SDS011;1026;51.460;7.252;2023-04-24T11:39:10;5.93;;;4.93;;
2041;SDS011;1026;51.460;7.252;2023-04-24T11:41:36;8.73;;;3.07;;
2041;SDS011;1026;51.460;7.252;2023-04-24T11:44:03;5.03;;;3.13;;
2041;SDS011;1026;51.460;7.252;2023-04-24T11:46:31;4.77;;;3.43;;
2041;SDS011;1026;51.460;7.252;2023-04-24T11:48:57;6.13;;;2.90;;
2041;SDS011;1026;51.460;7.252;2023-04-24T11:51:24;4.83;;;3.00;;
2041;SDS011;1026;51.460;7.252;2023-04-24T11:53:51;5.83;;;3.90;;
2041;SDS011;1026;51.460;7.252;2023-04-24T11:56:18;3.60;;;2.90;;
2041;SDS011;1026;51.460;7.252;2023-04-24T11:58:47;3.60;;;3.20;;
2041;SDS011;1026;51.460;7.252;2023-04-24T12:01:13;2.47;;;2.30;;
2041;SDS011;1026;51.460;7.252;2023-04-24T12:03:47;6.90;;;3.77;;
2041;SDS011;1026;51.460;7.252;2023-04-24T12:06:13;7.40;;;3.07;;
2041;SDS011;1026;51.460;7.252;2023-04-24T12:08:39;4.53;;;2.70;;
2041;SDS011;1026;51.460;7.252;2023-04-24T12:11:05;6.13;;;4.33;;
2041;SDS011;1026;51.460;7.252;2023-04-24T12:13:32;4.87;;;2.57;;
2041;SDS011;1026;51.460;7.252;2023-04-24T12:15:59;4.40;;;2.53;;
2041;SDS011;1026;51.460;7.252;2023-04-24T12:18:29;4.23;;;3.00;;
2041;SDS011;1026;51.460;7.252;2023-04-24T12:20:55;4.30;;;3.70;;
2041;SDS011;1026;51.460;7.252;2023-04-24T12:23:43;9.33;;;2.73;;
2041;SDS011;1026;51.460;7.252;2023-04-24T12:26:10;3.00;;;2.50;;
2041;SDS011;1026;51.460;7.252;2023-04-24T12:28:39;4.67;;;2.43;;
2041;SDS011;1026;51.460;7.252;2023-04-24T12:31:05;7.20;;;3.70;;
2041;SDS011;1026;51.460;7.252;2023-04-24T12:33:33;5.90;;;3.20;;
2041;SDS011;1026;51.460;7.252;2023-04-24T12:36:00;7.03;;;3.30;;
2041;SDS011;1026;51.460;7.252;2023-04-24T12:38:27;4.37;;;3.27;;
2041;SDS011;1026;51.460;7.252;2023-04-24T12:41:03;7.20;;;4.60;;
2041;SDS011;1026;51.460;7.252;2023-04-24T12:43:30;2.60;;;2.40;;
2041;SDS011;1026;51.460;7.252;2023-04-24T12:45:55;2.93;;;2.73;;
2041;SDS011;1026;51.460;7.252;2023-04-24T12:48:22;3.10;;;2.67;;
2041;SDS011;1026;51.460;7.252;2023-04-24T12:50:47;3.40;;;3.10;;
2041;SDS011;1026;51.460;7.252;2023-04-24T12:53:14;4.70;;;3.00;;
2041;SDS011;1026;51.460;7.252;2023-04-24T12:55:40;2.80;;;2.60;;
2041;SDS011;1026;51.460;7.252;2023-04-24T12:58:06;8.23;;;3.43;;
2041;SDS011;1026;51.460;7.252;2023-04-24T13:00:32;3.20;;;2.30;;
2041;SDS011;1026;51.460;7.252;2023-04-24T13:02:58;7.23;;;3.43;;
2041;SDS011;1026;51.460;7.252;2023-04-24T13:05:24;3.53;;;3.17;;
2041;SDS011;1026;51.460;7.252;2023-04-24T13:07:50;4.57;;;3.03;;
2041;SDS011;1026;51.460;7.252;2023-04-24T13:10:15;6.50;;;2.57;;
2041;SDS011;1026;51.460;7.252;2023-04-24T13:12:41;2.70;;;2.50;;
2041;SDS011;1026;51.460;7.252;2023-04-24T13:15:10;3.90;;;2.80;;
2041;SDS011;1026;51.460;7.252;2023-04-24T13:17:36;3.27;;;2.40;;
2041;SDS011;1026;51.460;7.252;2023-04-24T13:20:01;6.03;;;2.70;;
2041;SDS011;1026;51.460;7.252;2023-04-24T13:22:27;3.53;;;3.23;;
2041;SDS011;1026;51.460;7.252;2023-04-24T13:24:53;3.10;;;2.67;;
2041;SDS011;1026;51.460;7.252;2023-04-24T13:27:19;5.80;;;3.00;;
2041;SDS011;1026;51.460;7.252;2023-04-24T13:29:45;2.63;;;2.43;;
2041;SDS011;1026;51.460;7.252;2023-04-24T13:32:10;3.83;;;2.30;;
2041;SDS011;1026;51.460;7.252;2023-04-24T13:34:36;2.87;;;2.53;;
2041;SDS011;1026;51.460;7.252;2023-04-24T13:37:03;3.87;;;2.63;;
2041;SDS011;1026;51.460;7.252;2023-04-24T13:39:29;2.63;;;2.43;;
2041;SDS011;1026;51.460;7.252;2023-04-24T13:41:55;6.33;;;1.93;;
2041;SDS011;1026;51.460;7.252;2023-04-24T13:44:22;1.93;;;1.70;;
2041;SDS011;1026;51.460;7.252;2023-04-24T13:46:49;4.10;;;1.90;;
2041;SDS011;1026;51.460;7.252;2023-04-24T13:49:19;2.43;;;2.23;;
2041;SDS011;1026;51.460;7.252;2023-04-24T13:51:45;4.23;;;1.57;;
2041;SDS011;1026;51.460;7.252;2023-04-24T13:54:11;2.23;;;1.70;;
2041;SDS011;1026;51.460;7.252;2023-04-24T13:56:36;2.90;;;2.30;;
2041;SDS011;1026;51.460;7.252;2023-04-24T13:59:03;2.10;;;1.80;;
2041;SDS011;1026;51.460;7.252;2023-04-24T14:01:29;1.53;;;1.40;;
2041;SDS011;1026;51.460;7.252;2023-04-24T14:03:55;6.23;;;1.80;;
2041;SDS011;1026;51.460;7.252;2023-04-24T14:06:21;4.27;;;1.63;;
2041;SDS011;1026;51.460;7.252;2023-04-24T14:08:48;4.03;;;2.30;;
2041;SDS011;1026;51.460;7.252;2023-04-24T14:11:15;2.87;;;1.90;;
2041;SDS011;1026;51.460;7.252;2023-04-24T14:13:41;3.17;;;1.50;;
2041;SDS011;1026;51.460;7.252;2023-04-24T14:16:08;3.00;;;1.53;;
2041;SDS011;1026;51.460;7.252;2023-04-24T14:18:34;2.10;;;1.00;;
2041;SDS011;1026;51.460;7.252;2023-04-24T14:21:01;1.77;;;1.40;;
2041;SDS011;1026;51.460;7.252;2023-04-24T14:23:27;1.67;;;1.50;;
2041;SDS011;1026;51.460;7.252;2023-04-24T14:25:53;6.53;;;2.50;;
2041;SDS011;1026;51.460;7.252;2023-04-24T14:28:19;4.17;;;1.50;;
2041;SDS011;1026;51.460;7.252;2023-04-24T14:30:45;3.07;;;1.30;;
2041;SDS011;1026;51.460;7.252;2023-04-24T14:33:11;2.27;;;1.80;;
2041;SDS011;1026;51.460;7.252;2023-04-24T14:35:38;1.90;;;1.63;;
2041;SDS011;1026;51.460;7.252;2023-04-24T14:38:04;2.63;;;1.50;;
2041;SDS011;1026;51.460;7.252;2023-04-24T14:40:30;2.13;;;1.50;;
2041;SDS011;1026;51.460;7.252;2023-04-24T14:42:57;7.87;;;2.27;;
2041;SDS011;1026;51.460;7.252;2023-04-24T14:45:23;6.00;;;1.60;;
2041;SDS011;1026;51.460;7.252;2023-04-24T14:47:49;1.50;;;1.40;;
2041;SDS011;1026;51.460;7.252;2023-04-24T14:50:15;5.30;;;1.60;;
2041;SDS011;1026;51.460;7.252;2023-04-24T14:52:41;1.57;;;1.47;;
2041;SDS011;1026;51.460;7.252;2023-04-24T14:55:06;1.80;;;1.30;;
2041;SDS011;1026;51.460;7.252;2023-04-24T14:57:33;1.43;;;1.33;;
2041;SDS011;1026;51.460;7.252;2023-04-24T14:59:59;2.20;;;1.80;;
2041;SDS011;1026;51.460;7.252;2023-04-24T15:02:25;2.10;;;1.70;;
2041;SDS011;1026;51.460;7.252;2023-04-24T15:04:51;2.13;;;1.50;;
2041;SDS011;1026;51.460;7.252;2023-04-24T15:07:16;2.77;;;0.97;;
2041;SDS011;1026;51.460;7.252;2023-04-24T15:09:42;6.30;;;1.40;;
2041;SDS011;1026;51.460;7.252;2023-04-24T15:12:08;3.10;;;1.67;;
2041;SDS011;1026;51.460;7.252;2023-04-24T15:14:40;3.43;;;1.43;;
2041;SDS011;1026;51.460;7.252;2023-04-24T15:17:06;1.27;;;1.17;;
2041;SDS011;1026;51.460;7.252;2023-04-24T15:19:31;2.97;;;1.47;;
2041;SDS011;1026;51.460;7.252;2023-04-24T15:21:57;2.03;;;1.83;;
2041;SDS011;1026;51.460;7.252;2023-04-24T15:24:22;3.10;;;2.80;;
2041;SDS011;1026;51.460;7.252;2023-04-24T15:26:48;2.60;;;1.40;;